首页
METAR-TAF:

METAR-TAF

机场 :

圣佩德罗苏拉, 洪都拉斯

纬度: 15-27N, 经度: 087-56W, 海拔: 31米

当前天气观测

该预报发布于22分钟前的11:00 UTC
风速3节,风向西南
温度 23°C
湿度 94%
气压 1014 hPa
能见度10公里或以上
少量云层高于2600英尺

METAR: MHLM 111100Z 23003KT 9999 FEW026 23/22 Q1014 A2995 NOSIG

时间: 05:22 (11:22 UTC)

预报

该预报发布于9小时和22分钟前的02:00 UTC
预报有效从11日的 06点(UTC)到 12日的 06点(UTC)
风速5节,风向西南
能见度10公里或以上
少量云层高于2800英尺
散云层高于8000英尺
成为
从 11日的 16点(UTC)到 11日的 18点(UTC)
风速8节,风向
成为
从 11日的 21点(UTC)到 11日的 23点(UTC)
散云层高于2800英尺, 塔状积云.
多云层高于8000英尺
短暂存在
从 11日的 22点(UTC)到 12日的 02点(UTC)
能見度: 7000
附近有阵雨
成为
从 12日的 02点(UTC)到 12日的 04点(UTC)
风速5节,风向西转西北

TAF: MHLM 110200Z 1106/1206 22005KT 9999 FEW028 SCT080 TX32/1120Z TN22/1112Z BECMG 1116/1118 36008KT BECMG 1121/1123 SCT028TCU BKN080 TEMPO 1122/1202 7000 VCSH BECMG 1202/1204 30005KT

超过4000个机场的气象观测和天气预报(METAR&TAF报告)。

可查询的气象台以黄色和红色小点在地图上表示。

将鼠标移到小点上方,可查看气象台名称。

然后点击查看天气观测和预报。

如需切换地图:点击带黑十字的绿色按钮放大地图;点击带横线的绿色按钮缩小地图;或者点击绿色箭头查看邻近地区的地图。


METAR-TAF: